Time;durP1;ratioP1;P1;durP2;ratioP2;P2;SDS_P1;SDS_P2;PMS_P1;PMS_P2;Temp;Humidity;BMP_temperature;BMP_pressure;BME280_temperature;BME280_humidity;BME280_pressure;Samples;Min_cycle;Max_cycle;Signal;HPM_P1;HPM_P2
2021/12/13 00:01:22;;;;;;;41.85;28.00;;;;;;;0.90;100.00;100040.27;1746533;81;21102;-70
2021/12/13 00:04:22;;;;;;;36.95;22.07;;;;;;;0.93;100.00;100029.14;1761712;81;21514;-70
2021/12/13 00:06:52;;;;;;;38.70;24.27;;;;;;;0.95;100.00;100023.08;1750732;81;21066;-70
2021/12/13 00:09:22;;;;;;;60.95;36.98;;;;;;;0.89;100.00;100033.25;1704761;84;21456;-69
2021/12/13 00:11:56;;;;;;;44.10;26.60;;;;;;;0.88;100.00;100038.33;1714466;83;21075;-69
2021/12/13 00:14:33;;;;;;;55.00;32.78;;;;;;;0.90;100.00;100023.69;1711539;83;21055;-69
2021/12/13 00:17:09;;;;;;;63.75;41.45;;;;;;;0.92;100.00;100023.50;1749114;81;21624;-70
2021/12/13 00:19:43;;;;;;;43.25;27.52;;;;;;;0.94;100.00;100034.83;1760896;81;21066;-70
2021/12/13 00:22:19;;;;;;;37.10;23.20;;;;;;;0.90;100.00;100034.91;1757880;81;21044;-69
2021/12/13 00:24:46;;;;;;;36.28;23.47;;;;;;;0.92;100.00;100035.02;1745748;82;21061;-69
2021/12/13 00:27:21;;;;;;;31.30;20.55;;;;;;;0.93;100.00;100027.80;1754222;81;21098;-69
2021/12/13 00:30:09;;;;;;;35.50;22.07;;;;;;;0.95;100.00;100030.62;1748956;81;21007;-70
2021/12/13 00:33:11;;;;;;;35.92;23.95;;;;;;;0.95;100.00;100027.94;1763857;81;21114;-69
2021/12/13 00:35:49;;;;;;;33.90;22.70;;;;;;;0.91;100.00;100015.97;1752083;81;21000;-69
2021/12/13 00:38:18;;;;;;;36.53;22.00;;;;;;;0.88;100.00;100024.41;1773249;81;21919;-69
2021/12/13 00:40:48;;;;;;;34.45;22.37;;;;;;;0.93;100.00;100014.40;1756112;81;21035;-69
2021/12/13 00:43:19;;;;;;;30.88;19.73;;;;;;;0.95;100.00;100010.52;1722288;82;21105;-69
2021/12/13 00:46:01;;;;;;;30.72;20.55;;;;;;;0.91;100.00;100011.11;1747102;81;21071;-69
2021/12/13 00:48:30;;;;;;;36.15;22.95;;;;;;;0.87;100.00;100013.37;1758393;81;21534;-69
2021/12/13 00:51:19;;;;;;;29.40;19.75;;;;;;;0.90;100.00;100004.92;1742813;81;21019;-69
2021/12/13 00:53:48;;;;;;;39.98;26.90;;;;;;;0.91;100.00;100009.77;1734501;81;21039;-69
2021/12/13 00:56:49;;;;;;;36.10;23.62;;;;;;;0.88;100.00;100016.37;1762922;81;21039;-69
2021/12/13 00:59:48;;;;;;;31.85;20.90;;;;;;;0.93;100.00;100013.06;1757744;81;21518;-69
2021/12/13 01:02:20;;;;;;;27.10;19.07;;;;;;;0.97;100.00;100007.61;1765779;81;21510;-69
2021/12/13 01:04:55;;;;;;;28.42;18.40;;;;;;;0.95;100.00;100015.88;1741633;81;21576;-70
2021/12/13 01:07:41;;;;;;;28.98;19.32;;;;;;;0.91;100.00;100012.45;1711411;81;21122;-69
2021/12/13 01:11:00;;;;;;;30.85;19.02;;;;;;;0.92;100.00;100010.89;1729407;81;21117;-69
2021/12/13 01:13:38;;;;;;;29.77;19.35;;;;;;;0.98;100.00;100017.31;1740531;81;20976;-69
2021/12/13 01:16:33;;;;;;;29.57;19.20;;;;;;;0.94;100.00;99997.30;1728584;81;21090;-70
2021/12/13 01:21:33;;;;;;;28.90;18.82;;;;;;;0.90;100.00;99979.45;1737520;81;21063;-69
2021/12/13 01:24:06;;;;;;;25.25;17.05;;;;;;;0.94;100.00;99978.53;1750745;81;21015;-69
2021/12/13 01:26:37;;;;;;;26.85;17.42;;;;;;;0.93;100.00;99976.37;1731922;81;21585;-69
2021/12/13 01:29:15;;;;;;;27.15;18.17;;;;;;;0.88;100.00;99975.34;1726597;81;21062;-69
2021/12/13 01:31:53;;;;;;;27.67;18.62;;;;;;;0.91;100.00;99985.65;1746517;81;21070;-69
2021/12/13 01:34:20;;;;;;;28.75;18.32;;;;;;;0.95;100.00;99984.22;1749635;81;20996;-69
2021/12/13 01:37:00;;;;;;;26.95;17.85;;;;;;;0.97;100.00;99984.31;1746871;81;21044;-69
2021/12/13 01:39:22;;;;;;;29.10;18.95;;;;;;;1.01;100.00;99978.03;1725419;81;21031;-69
2021/12/13 01:41:58;;;;;;;32.38;22.20;;;;;;;1.03;100.00;99967.12;1732747;81;21557;-70
2021/12/13 01:44:28;;;;;;;32.98;20.45;;;;;;;0.99;100.00;99963.48;1751366;81;21035;-70
2021/12/13 01:47:03;;;;;;;33.73;19.75;;;;;;;1.00;100.00;99962.97;1741895;81;21692;-70
2021/12/13 01:49:34;;;;;;;31.93;20.75;;;;;;;1.02;100.00;99964.95;1739402;81;21055;-69
2021/12/13 01:52:00;;;;;;;32.28;21.45;;;;;;;1.06;100.00;99958.15;1743234;81;21047;-70
2021/12/13 01:54:27;;;;;;;32.90;22.35;;;;;;;1.04;100.00;99970.09;1758854;81;21067;-70
2021/12/13 01:57:23;;;;;;;36.17;22.65;;;;;;;1.01;100.00;99964.63;1752224;81;21062;-70
2021/12/13 01:59:50;;;;;;;35.17;21.85;;;;;;;1.03;100.00;99967.12;1763666;81;21095;-70
2021/12/13 02:02:26;;;;;;;30.02;19.65;;;;;;;1.06;100.00;99972.06;1747075;81;21056;-70
2021/12/13 02:05:16;;;;;;;35.35;22.82;;;;;;;1.07;100.00;99990.61;1755848;81;21044;-69
2021/12/13 02:07:50;;;;;;;34.83;22.32;;;;;;;1.04;100.00;99987.52;1745228;81;21543;-69
2021/12/13 02:10:36;;;;;;;40.03;23.55;;;;;;;0.96;100.00;99987.19;1751551;81;21097;-70
2021/12/13 02:13:09;;;;;;;35.98;22.02;;;;;;;0.97;100.00;99982.97;1737461;81;21083;-69
2021/12/13 02:18:28;;;;;;;39.65;23.92;;;;;;;1.08;100.00;99985.56;1746343;81;21094;-69
2021/12/13 02:21:05;;;;;;;36.33;23.47;;;;;;;1.09;100.00;99978.36;1742182;81;21059;-70
2021/12/13 02:23:29;;;;;;;38.78;23.92;;;;;;;1.05;100.00;99974.42;1741430;81;20966;-69
2021/12/13 02:25:57;;;;;;;37.73;23.65;;;;;;;1.05;100.00;99979.28;1753421;81;21074;-70
2021/12/13 02:28:30;;;;;;;38.95;24.43;;;;;;;1.09;100.00;99985.06;1745679;81;21488;-69
2021/12/13 02:31:19;;;;;;;38.02;24.37;;;;;;;1.11;100.00;99974.94;1752411;81;21003;-69
2021/12/13 02:33:57;;;;;;;42.20;26.02;;;;;;;1.08;100.00;99984.23;1743628;81;21578;-70
2021/12/13 02:36:31;;;;;;;39.67;24.57;;;;;;;1.04;100.00;99987.52;1757710;81;21060;-70
2021/12/13 02:39:00;;;;;;;42.38;25.08;;;;;;;1.06;100.00;99986.81;1745439;80;21800;-69
2021/12/13 02:41:29;;;;;;;43.08;25.60;;;;;;;1.11;100.00;99988.34;1739611;82;21545;-69
2021/12/13 02:44:02;;;;;;;41.20;25.27;;;;;;;1.10;100.00;99983.49;1733953;82;21462;-69
2021/12/13 02:46:28;;;;;;;47.55;27.35;;;;;;;1.08;100.00;99981.55;1733314;82;21124;-69
2021/12/13 02:48:58;;;;;;;;;;;;;;;1.09;100.00;99992.59;1744953;82;21053;-70
2021/12/13 02:51:35;;;;;;;42.83;23.95;;;;;;;1.14;100.00;99983.41;1747884;82;20120;-69
2021/12/13 02:54:11;;;;;;;;;;;;;;;1.14;100.00;99990.10;1748765;82;20990;-69
2021/12/13 02:56:43;;;;;;;45.92;25.95;;;;;;;1.17;100.00;99982.98;1741239;82;20093;-69
2021/12/13 02:59:10;;;;;;;44.15;26.23;;;;;;;1.11;100.00;99981.13;1736782;82;21058;-69
2021/12/13 03:02:00;;;;;;;50.63;27.15;;;;;;;1.07;100.00;99977.20;1742659;82;21066;-70
2021/12/13 03:04:27;;;;;;;49.38;27.27;;;;;;;1.05;100.00;99976.59;1750649;82;20971;-69
2021/12/13 03:07:14;;;;;;;47.75;26.65;;;;;;;1.07;100.00;99976.38;1748428;82;21043;-70
2021/12/13 03:09:42;;;;;;;48.50;26.77;;;;;;;1.11;100.00;99967.73;1727683;82;21006;-69
2021/12/13 03:12:11;;;;;;;47.50;26.73;;;;;;;1.11;100.00;99960.19;1739808;82;21042;-69
2021/12/13 03:14:46;;;;;;;47.45;25.75;;;;;;;1.07;100.00;99958.44;1746501;82;20978;-69
2021/12/13 03:17:26;;;;;;;46.10;26.33;;;;;;;1.10;100.00;99954.00;1748461;82;21038;-69
2021/12/13 03:20:07;;;;;;;47.03;26.73;;;;;;;1.11;100.00;99940.08;1733712;82;21450;-69
2021/12/13 03:24:02;;;;;;;48.65;28.27;;;;;;;1.16;100.00;99941.13;1877357;74;22641;-69
2021/12/13 03:26:54;;;;;;;51.60;27.67;;;;;;;1.04;100.00;99944.11;1853686;75;21038;-69
2021/12/13 03:29:47;;;;;;;52.73;28.07;;;;;;;1.02;100.00;99936.80;1803305;77;20987;-69
2021/12/13 03:32:15;;;;;;;47.80;27.37;;;;;;;1.06;100.00;99939.38;1735028;80;21059;-69
2021/12/13 03:35:05;;;;;;;46.90;27.67;;;;;;;1.10;100.00;99935.78;1782016;80;21462;-69
2021/12/13 03:37:32;;;;;;;46.77;27.02;;;;;;;1.11;100.00;99923.48;1777499;80;21388;-69
2021/12/13 03:40:00;;;;;;;;;;;;;;;1.07;100.00;99926.77;1815019;77;20944;-70
2021/12/13 03:42:30;;;;;;;47.25;25.70;;;;;;;1.08;100.00;99927.92;1805265;79;20093;-70
2021/12/13 03:45:01;;;;;;;44.15;25.65;;;;;;;1.08;100.00;99926.59;1764713;80;21005;-70
2021/12/13 03:47:35;;;;;;;49.30;27.82;;;;;;;1.10;100.00;99927.73;1774426;80;21493;-70
2021/12/13 03:50:01;;;;;;;49.00;26.95;;;;;;;1.11;100.00;99918.63;1792054;79;21520;-71
2021/12/13 03:52:30;;;;;;;45.73;26.87;;;;;;;1.08;100.00;99919.88;1789554;80;21066;-70
2021/12/13 03:54:59;;;;;;;49.35;28.32;;;;;;;1.06;100.00;99920.61;1795990;80;20979;-70
2021/12/13 04:04:57;;;;;;;52.50;27.20;;;;;;;1.02;100.00;99911.33;1809533;79;22518;-70
2021/12/13 04:07:32;;;;;;;50.52;27.52;;;;;;;0.98;100.00;99904.73;1754949;80;21642;-71
2021/12/13 04:10:00;;;;;;;52.60;29.95;;;;;;;1.03;100.00;99902.78;1743857;82;21576;-70
2021/12/13 04:12:36;;;;;;;55.67;30.62;;;;;;;1.02;100.00;99892.56;1750026;82;21564;-70
2021/12/13 04:15:02;;;;;;;50.73;28.65;;;;;;;1.02;100.00;99897.09;1761248;81;21502;-70
2021/12/13 04:17:56;;;;;;;58.17;31.02;;;;;;;1.03;100.00;99906.25;1748217;82;21038;-70
2021/12/13 04:20:17;;;;;;;53.58;29.45;;;;;;;1.01;100.00;99902.97;1745465;82;21443;-70
2021/12/13 04:22:51;;;;;;;53.78;29.52;;;;;;;1.03;100.00;99906.80;1719470;82;21179;-70
2021/12/13 04:25:35;;;;;;;58.52;31.00;;;;;;;1.06;100.00;99917.11;1751396;82;20987;-70
2021/12/13 04:28:12;;;;;;;52.40;29.67;;;;;;;1.07;100.00;99924.09;1748054;82;21071;-71
2021/12/13 04:30:44;;;;;;;;;;;;;;;1.03;100.00;99925.56;1747751;82;21014;-70
2021/12/13 04:33:28;;;;;;;58.13;30.80;;;;;;;1.05;100.00;99936.89;1725360;82;20117;-70
2021/12/13 04:36:05;;;;;;;56.23;28.98;;;;;;;1.04;100.00;99930.70;1750757;80;20972;-70
2021/12/13 04:38:53;;;;;;;57.62;30.52;;;;;;;1.11;100.00;99934.72;1743471;82;21010;-70
2021/12/13 04:41:47;;;;;;;53.30;29.23;;;;;;;1.16;100.00;99936.28;1741542;82;20986;-70
2021/12/13 04:44:37;;;;;;;56.53;31.62;;;;;;;1.16;100.00;99934.94;1742488;82;21030;-71
2021/12/13 04:47:14;;;;;;;62.23;32.55;;;;;;;1.11;100.00;99930.19;1752148;82;21019;-70
2021/12/13 04:49:50;;;;;;;57.65;31.37;;;;;;;1.15;100.00;99936.80;1753372;82;21054;-71
2021/12/13 04:52:17;;;;;;;60.30;32.75;;;;;;;1.17;100.00;99934.72;1736119;82;21063;-70
2021/12/13 04:54:48;;;;;;;53.87;29.90;;;;;;;1.20;100.00;99942.89;1754392;81;21596;-70
2021/12/13 04:57:15;;;;;;;57.23;33.00;;;;;;;1.17;100.00;99944.64;1754895;80;21078;-71
2021/12/13 04:59:45;;;;;;;58.58;29.60;;;;;;;1.17;100.00;99940.08;1726322;82;21588;-71
2021/12/13 05:02:12;;;;;;;62.10;32.00;;;;;;;1.21;100.00;99942.67;1727493;82;21474;-71
2021/12/13 05:04:38;;;;;;;;;;;;;;;1.24;100.00;99939.56;1736699;82;21800;-71
2021/12/13 05:07:05;;;;;;;60.35;31.15;;;;;;;1.23;100.00;99951.34;1742910;82;20127;-71
2021/12/13 05:09:32;;;;;;;62.93;32.58;;;;;;;1.13;100.00;99948.25;1737146;82;21042;-70
2021/12/13 05:12:14;;;;;;;56.45;29.60;;;;;;;1.15;100.00;99954.23;1743093;81;21074;-70
2021/12/13 05:14:48;;;;;;;58.68;30.10;;;;;;;1.20;100.00;99949.59;1716529;82;21087;-71
2021/12/13 05:17:24;;;;;;;61.75;31.07;;;;;;;1.23;100.00;99957.22;1753125;81;21016;-70
2021/12/13 05:20:01;;;;;;;57.75;30.35;;;;;;;1.16;100.00;99953.20;1737149;80;21047;-70
2021/12/13 05:22:28;;;;;;;;;;;;;;;1.14;100.00;99963.29;1734346;82;21422;-71
2021/12/13 05:24:59;;;;;;;59.38;29.27;;;;;;;1.17;100.00;99954.83;1736845;82;20375;-70
2021/12/13 05:27:30;;;;;;;58.73;30.37;;;;;;;1.10;100.00;99951.31;1743044;82;21047;-71
2021/12/13 05:30:12;;;;;;;55.25;30.45;;;;;;;1.15;100.00;99958.25;1742222;82;21083;-70
2021/12/13 05:32:47;;;;;;;55.88;29.37;;;;;;;1.17;100.00;99957.52;1737923;82;21087;-70
2021/12/13 05:35:37;;;;;;;58.40;32.25;;;;;;;1.15;100.00;99956.91;1739606;82;21004;-70
2021/12/13 05:38:08;;;;;;;62.48;33.08;;;;;;;1.15;100.00;99951.55;1741006;82;21641;-70
2021/12/13 05:40:45;;;;;;;59.48;31.80;;;;;;;1.19;100.00;99955.47;1727528;82;20996;-72
2021/12/13 05:43:18;;;;;;;;;;;;;;;1.23;100.00;99950.52;1745216;82;21071;-71
2021/12/13 05:45:53;;;;;;;56.80;28.17;;;;;;;1.21;100.00;99960.09;1740693;82;20143;-70
2021/12/13 05:48:24;;;;;;;56.85;30.08;;;;;;;1.10;100.00;99957.22;1731643;82;21051;-70
2021/12/13 05:50:58;;;;;;;59.73;30.77;;;;;;;1.09;100.00;99961.75;1735770;82;21431;-71
2021/12/13 05:53:29;;;;;;;55.23;30.25;;;;;;;1.15;100.00;99955.56;1724316;82;21095;-71
2021/12/13 05:56:10;;;;;;;50.70;29.00;;;;;;;1.20;100.00;99963.83;1732071;82;20936;-71
2021/12/13 05:58:54;;;;;;;55.35;30.55;;;;;;;1.21;100.00;99961.44;1730708;82;21050;-71
2021/12/13 06:01:43;;;;;;;55.67;30.02;;;;;;;1.17;100.00;99957.52;1742454;82;21102;-71
2021/12/13 06:04:23;;;;;;;61.90;30.52;;;;;;;1.17;100.00;99954.83;1728887;82;21053;-70
2021/12/13 06:06:53;;;;;;;57.08;30.23;;;;;;;1.22;100.00;99958.25;1707887;82;21106;-70
2021/12/13 06:09:59;;;;;;;64.30;30.95;;;;;;;1.24;100.00;99965.05;1707569;84;21570;-71
2021/12/13 06:12:37;;;;;;;60.48;29.80;;;;;;;1.22;100.00;99968.46;1740994;82;21074;-71
2021/12/13 06:15:12;;;;;;;;;;;;;;;1.15;100.00;99977.02;1745592;81;21027;-67
2021/12/13 06:17:38;;;;;;;58.85;28.80;;;;;;;1.14;100.00;99983.91;1742093;81;20108;-68
2021/12/13 06:20:10;;;;;;;53.13;28.52;;;;;;;1.13;100.00;99976.92;1733023;82;21002;-69
2021/12/13 06:22:37;;;;;;;51.73;28.25;;;;;;;1.15;100.00;99978.87;1730414;83;21605;-68
2021/12/13 06:25:07;;;;;;;;;;;;;;;1.13;100.00;99975.58;1733055;83;21090;-68
2021/12/13 06:27:48;;;;;;;56.13;29.65;;;;;;;1.09;100.00;99982.38;1729652;82;20434;-68
2021/12/13 06:30:21;;;;;;;53.15;27.25;;;;;;;1.06;100.00;99981.45;1739323;81;21455;-68
2021/12/13 06:33:03;;;;;;;47.65;26.48;;;;;;;1.09;100.00;99983.20;1742887;81;21596;-68
2021/12/13 06:35:55;;;;;;;47.73;25.82;;;;;;;1.14;100.00;99979.38;1742781;82;21554;-68
2021/12/13 06:38:27;;;;;;;45.80;25.72;;;;;;;1.19;100.00;99977.43;1736659;82;21019;-69
2021/12/13 06:41:04;;;;;;;50.83;25.65;;;;;;;1.15;100.00;99983.72;1730451;83;21483;-68
2021/12/13 06:43:38;;;;;;;45.70;26.27;;;;;;;1.10;100.00;99984.83;1730620;83;21509;-68
2021/12/13 06:46:12;;;;;;;47.45;25.37;;;;;;;1.15;100.00;99990.94;1730743;83;20991;-68
2021/12/13 06:48:46;;;;;;;44.13;24.20;;;;;;;1.18;100.00;99988.67;1711576;82;21510;-68
2021/12/13 06:51:16;;;;;;;46.23;25.12;;;;;;;1.22;100.00;99979.70;1730757;83;20978;-68
2021/12/13 06:54:09;;;;;;;45.00;24.75;;;;;;;1.25;100.00;99973.41;1730528;83;21058;-68
2021/12/13 06:56:36;;;;;;;44.60;23.50;;;;;;;1.26;100.00;99971.05;1681471;85;21044;-67
2021/12/13 06:59:05;;;;;;;45.33;23.38;;;;;;;1.22;100.00;99964.44;1689656;85;21088;-68
2021/12/13 07:01:34;;;;;;;45.90;24.85;;;;;;;1.23;100.00;99955.37;1711595;82;21079;-68
2021/12/13 07:04:08;;;;;;;41.00;23.18;;;;;;;1.27;100.00;99963.83;1744415;82;21023;-68
2021/12/13 07:06:37;;;;;;;43.15;25.72;;;;;;;1.26;100.00;99954.95;1684809;85;21036;-68
2021/12/13 07:09:13;;;;;;;44.48;24.82;;;;;;;1.26;100.00;99953.61;1726772;82;21558;-68
2021/12/13 07:11:51;;;;;;;44.80;24.50;;;;;;;1.22;100.00;99956.39;1720945;83;21066;-68
2021/12/13 07:14:21;;;;;;;45.55;24.30;;;;;;;1.19;100.00;99952.78;1720993;83;21094;-68
2021/12/13 07:16:52;;;;;;;42.70;24.67;;;;;;;1.20;100.00;99954.95;1736289;82;21035;-68
2021/12/13 07:19:26;;;;;;;45.40;24.90;;;;;;;1.22;100.00;99951.03;1748115;82;21038;-67
2021/12/13 07:22:04;;;;;;;39.98;22.13;;;;;;;1.26;100.00;99947.42;1748247;82;21062;-68
2021/12/13 07:24:42;;;;;;;;;;;;;;;1.21;100.00;99945.34;1750807;82;21035;-68
2021/12/13 07:27:12;;;;;;;42.55;22.67;;;;;;;1.23;100.00;99943.30;1747208;81;20445;-68
2021/12/13 07:29:52;;;;;;;36.10;20.27;;;;;;;1.25;100.00;99940.40;1728143;82;21065;-68
2021/12/13 07:32:31;;;;;;;33.38;20.02;;;;;;;1.28;100.00;99936.78;1722126;82;21093;-68
2021/12/13 07:35:06;;;;;;;33.10;19.60;;;;;;;1.29;100.00;99933.59;1725442;82;21011;-68
2021/12/13 07:37:47;;;;;;;34.85;20.52;;;;;;;1.25;100.00;99931.84;1748066;82;21043;-67
2021/12/13 07:40:28;;;;;;;37.90;20.95;;;;;;;1.26;100.00;99932.16;1748005;82;21058;-67
2021/12/13 07:43:27;;;;;;;38.73;21.12;;;;;;;1.28;100.00;99928.73;1748230;82;21039;-67
2021/12/13 07:46:14;;;;;;;39.60;21.00;;;;;;;1.31;100.00;99935.03;1740639;81;20946;-67
2021/12/13 07:48:46;;;;;;;33.63;20.07;;;;;;;1.28;100.00;99950.19;1720581;83;20998;-67
2021/12/13 07:51:25;;;;;;;38.10;21.27;;;;;;;1.28;100.00;99965.45;1721296;83;20995;-67
2021/12/13 07:54:06;;;;;;;29.55;17.95;;;;;;;1.32;100.00;99960.83;1721957;82;21632;-67
2021/12/13 07:56:39;;;;;;;34.15;20.85;;;;;;;1.30;100.00;99964.24;1748215;82;21122;-67
2021/12/13 07:59:29;;;;;;;32.78;20.23;;;;;;;1.27;100.00;99967.85;1748049;82;21597;-67
2021/12/13 08:02:08;;;;;;;34.33;19.23;;;;;;;1.27;100.00;99967.34;1748063;82;21130;-66
2021/12/13 08:04:48;;;;;;;34.60;20.23;;;;;;;1.33;100.00;99978.58;1744934;82;21046;-67
2021/12/13 08:07:25;;;;;;;35.90;21.35;;;;;;;1.34;100.00;99984.27;1720816;83;21034;-67
2021/12/13 08:09:59;;;;;;;32.40;18.87;;;;;;;1.33;100.00;100011.27;1720923;83;21087;-66
2021/12/13 08:12:32;;;;;;;36.95;21.50;;;;;;;1.27;100.00;100016.13;1720856;83;21109;-67
2021/12/13 08:15:27;;;;;;;32.48;19.45;;;;;;;1.26;100.00;100015.30;1706651;83;21042;-67
2021/12/13 08:18:02;;;;;;;32.90;20.50;;;;;;;1.28;100.00;100014.56;1717771;83;21078;-66
2021/12/13 08:20:45;;;;;;;37.38;20.40;;;;;;;1.32;100.00;99994.35;1733215;82;20996;-67
2021/12/13 08:23:19;;;;;;;33.75;19.85;;;;;;;1.36;100.00;99989.40;1710756;82;21106;-66
2021/12/13 08:25:49;;;;;;;35.15;21.33;;;;;;;1.35;100.00;99982.38;1748001;82;21045;-66
2021/12/13 08:28:19;;;;;;;48.90;29.95;;;;;;;1.34;100.00;99978.89;1712864;82;21597;-66
2021/12/13 08:34:49;;;;;;;47.27;28.25;;;;;;;1.46;100.00;99986.61;1801549;79;22926;-64
2021/12/13 08:37:26;;;;;;;43.25;25.80;;;;;;;1.44;100.00;99981.16;1756043;81;21118;-65
2021/12/13 08:39:58;;;;;;;51.65;32.28;;;;;;;1.47;100.00;99980.22;1747464;82;20948;-65
2021/12/13 08:42:29;;;;;;;34.95;20.80;;;;;;;1.47;100.00;99994.98;1731994;82;21042;-64
2021/12/13 08:45:17;;;;;;;42.62;25.32;;;;;;;1.45;100.00;100000.25;1723392;82;21031;-64
2021/12/13 08:47:51;;;;;;;42.50;26.42;;;;;;;1.46;100.00;99988.47;1751207;82;21070;-65
2021/12/13 08:50:26;;;;;;;38.90;25.25;;;;;;;1.48;100.00;99985.08;1750680;82;21526;-64
2021/12/13 08:53:14;;;;;;;30.35;20.62;;;;;;;1.47;100.00;99982.91;1728817;81;21070;-65
2021/12/13 08:55:46;;;;;;;36.70;22.73;;;;;;;1.43;100.00;99984.34;1736107;82;21011;-65
2021/12/13 08:58:17;;;;;;;39.05;25.48;;;;;;;1.41;100.00;99975.70;1739346;82;21391;-64
2021/12/13 09:01:06;;;;;;;35.80;23.05;;;;;;;1.49;100.00;99965.24;1724103;82;21451;-65
2021/12/13 09:03:43;;;;;;;30.32;19.17;;;;;;;1.55;100.00;99953.70;1753096;82;21050;-64
2021/12/13 09:06:31;;;;;;;32.20;19.07;;;;;;;1.59;100.00;99939.36;1731334;82;21027;-64
2021/12/13 09:09:06;;;;;;;30.43;18.35;;;;;;;1.56;100.00;99935.20;1728976;80;21069;-65
2021/12/13 09:11:48;;;;;;;32.55;20.02;;;;;;;1.56;100.00;99939.23;1735798;80;21645;-64
2021/12/13 09:14:22;;;;;;;31.23;19.98;;;;;;;1.60;100.00;99936.95;1769128;80;21665;-64
2021/12/13 09:17:22;;;;;;;34.83;19.62;;;;;;;1.64;100.00;99945.73;1689060;83;21552;-65
2021/12/13 09:20:00;;;;;;;31.40;19.90;;;;;;;1.65;100.00;99954.61;1700581;84;21052;-64
2021/12/13 09:22:43;;;;;;;28.10;19.05;;;;;;;1.59;100.00;99943.38;1680647;84;21169;-65
2021/12/13 09:25:33;;;;;;;39.60;22.32;;;;;;;1.57;100.00;99950.80;1682957;84;21557;-67
2021/12/13 09:28:23;;;;;;;32.08;21.62;;;;;;;1.59;100.00;99952.77;1698774;84;21082;-64
2021/12/13 09:31:00;;;;;;;32.30;20.45;;;;;;;1.59;100.00;99949.58;1697537;84;21066;-65
2021/12/13 09:33:32;;;;;;;;;;;;;;;1.56;100.00;99954.53;1693566;83;21072;-65
2021/12/13 09:36:08;;;;;;;33.40;20.17;;;;;;;1.52;100.00;99953.30;1669974;85;20146;-65
2021/12/13 09:38:39;;;;;;;32.50;21.43;;;;;;;1.46;100.00;99949.57;1690715;85;21538;-65
2021/12/13 09:41:17;;;;;;;33.95;20.92;;;;;;;1.53;100.00;99950.39;1682765;85;21546;-65
2021/12/13 09:43:58;;;;;;;35.73;21.73;;;;;;;1.57;100.00;99959.67;1691044;85;21550;-66
2021/12/13 09:46:42;;;;;;;35.05;22.15;;;;;;;1.57;100.00;99942.75;1670129;85;21076;-65
2021/12/13 09:49:31;;;;;;;37.13;22.82;;;;;;;1.54;100.00;99945.84;1683044;85;21039;-65
2021/12/13 09:52:31;;;;;;;35.43;20.40;;;;;;;1.56;100.00;99944.59;1687691;85;21019;-65
2021/12/13 09:55:17;;;;;;;30.65;19.45;;;;;;;1.62;100.00;99938.42;1657939;86;21095;-66
2021/12/13 09:58:12;;;;;;;29.55;19.82;;;;;;;1.66;100.00;99945.53;1668123;85;21051;-65
2021/12/13 10:00:48;;;;;;;32.88;20.77;;;;;;;1.63;100.00;99942.73;1666643;85;21004;-66
2021/12/13 10:03:28;;;;;;;34.45;21.85;;;;;;;1.59;100.00;99954.11;1665467;85;21945;-66
2021/12/13 10:06:00;;;;;;;35.15;22.87;;;;;;;1.57;100.00;99951.62;1684413;85;21566;-65
2021/12/13 10:08:53;;;;;;;31.05;20.97;;;;;;;1.59;100.00;99952.26;1691438;85;21055;-65
2021/12/13 10:11:25;;;;;;;33.63;20.97;;;;;;;1.61;100.00;99962.77;1664813;85;21091;-65
2021/12/13 10:13:52;;;;;;;34.55;21.52;;;;;;;1.57;100.00;99966.89;1709744;84;21020;-65
2021/12/13 10:16:26;;;;;;;37.25;22.30;;;;;;;1.50;100.00;99966.39;1713972;82;21614;-65
2021/12/13 10:18:53;;;;;;;31.90;20.12;;;;;;;1.45;100.00;99954.11;1719151;82;21074;-65
2021/12/13 10:21:26;;;;;;;;;;;;;;;1.46;100.00;99953.08;1741532;82;21060;-66
2021/12/13 10:23:57;;;;;;;30.10;19.25;;;;;;;1.53;100.00;99953.58;1726742;82;20116;-66
2021/12/13 10:26:29;;;;;;;32.42;21.40;;;;;;;1.54;100.00;99958.75;1732006;82;21095;-65
2021/12/13 10:28:57;;;;;;;37.67;22.32;;;;;;;1.58;100.00;99959.16;1738936;82;21600;-65
2021/12/13 10:31:35;;;;;;;31.68;20.65;;;;;;;1.58;100.00;99953.28;1738982;82;21060;-65
2021/12/13 10:34:06;;;;;;;41.50;24.47;;;;;;;1.58;100.00;99961.84;1745833;81;21066;-65
2021/12/13 10:36:32;;;;;;;40.05;23.35;;;;;;;1.60;100.00;99959.77;1750880;82;21050;-65
2021/12/13 10:39:04;;;;;;;37.78;22.42;;;;;;;1.67;100.00;99954.70;1726155;82;21030;-65
2021/12/13 10:41:36;;;;;;;33.83;22.20;;;;;;;1.71;100.00;99955.11;1753367;81;21114;-64
2021/12/13 10:44:08;;;;;;;29.12;19.77;;;;;;;1.73;100.00;99957.91;1748978;82;21191;-66
2021/12/13 10:46:39;;;;;;;37.13;22.87;;;;;;;1.68;100.00;99950.99;1723412;83;21077;-65
2021/12/13 10:49:11;;;;;;;32.80;21.60;;;;;;;1.60;100.00;99960.59;1723364;83;21066;-65
2021/12/13 10:55:27;;;;;;;32.88;20.60;;;;;;;1.65;100.00;99946.05;1801911;79;22918;-65
2021/12/13 10:57:53;;;;;;;38.78;22.87;;;;;;;1.57;100.00;99952.97;1753968;81;21046;-64
2021/12/13 11:00:25;;;;;;;37.25;23.25;;;;;;;1.55;100.00;99946.16;1753220;82;21764;-65
2021/12/13 11:03:03;;;;;;;43.95;24.20;;;;;;;1.58;100.00;99945.75;1751338;82;21098;-65
2021/12/13 11:05:30;;;;;;;36.60;22.45;;;;;;;1.65;100.00;99941.20;1723137;83;20975;-65
2021/12/13 11:07:58;;;;;;;32.38;20.68;;;;;;;1.69;100.00;99935.72;1723072;83;21051;-65
2021/12/13 11:10:31;;;;;;;37.45;22.32;;;;;;;1.71;100.00;99930.95;1723266;83;21034;-65
2021/12/13 11:13:00;;;;;;;33.48;20.77;;;;;;;1.66;100.00;99933.46;1722174;83;21058;-66
2021/12/13 11:15:30;;;;;;;39.70;23.00;;;;;;;1.59;100.00;99921.40;1748891;82;20935;-66
2021/12/13 11:17:57;;;;;;;42.67;22.58;;;;;;;1.60;100.00;99915.48;1752977;82;21106;-65
2021/12/13 11:20:29;;;;;;;38.40;23.80;;;;;;;1.63;100.00;99913.76;1753178;82;21003;-65
2021/12/13 11:22:56;;;;;;;39.50;23.73;;;;;;;1.69;100.00;99918.28;1739368;81;21090;-65
2021/12/13 11:25:27;;;;;;;35.30;22.55;;;;;;;1.74;100.00;99903.69;1723248;83;21569;-65
2021/12/13 11:27:54;;;;;;;43.40;25.77;;;;;;;1.77;100.00;99910.01;1723041;83;21051;-65
2021/12/13 11:30:25;;;;;;;44.10;25.08;;;;;;;1.78;100.00;99918.34;1725134;82;21022;-65
2021/12/13 11:33:22;;;;;;;48.73;27.87;;;;;;;1.82;100.00;99919.06;1722904;83;21440;-66
2021/12/13 11:36:19;;;;;;;42.90;24.80;;;;;;;1.89;100.00;99923.06;1722531;83;21034;-66
2021/12/13 11:39:41;;;;;;;41.02;26.35;;;;;;;1.89;100.00;99920.38;1722341;82;21113;-65
2021/12/13 11:42:41;;;;;;;47.43;26.40;;;;;;;1.82;100.00;99914.20;1723141;83;21089;-66
2021/12/13 11:45:58;;;;;;;41.98;25.02;;;;;;;1.80;100.00;99912.27;1723271;83;21111;-65
2021/12/13 11:49:05;;;;;;;43.00;23.50;;;;;;;1.77;100.00;99916.17;1721705;82;21019;-65
2021/12/13 11:52:09;;;;;;;46.08;27.00;;;;;;;1.71;100.00;99918.88;1723271;83;21585;-65
2021/12/13 11:55:29;;;;;;;42.03;24.87;;;;;;;1.63;100.00;99924.49;1723433;83;21617;-65
2021/12/13 11:58:10;;;;;;;41.18;23.45;;;;;;;1.65;100.00;99923.75;1735337;82;21878;-66
2021/12/13 12:01:17;;;;;;;44.85;27.42;;;;;;;1.70;100.00;99940.06;1753818;82;21078;-66
2021/12/13 12:04:31;;;;;;;46.73;27.27;;;;;;;1.75;100.00;99948.30;1753921;82;21027;-66
2021/12/13 12:07:21;;;;;;;41.80;26.52;;;;;;;1.72;100.00;99946.86;1749101;82;21054;-65
2021/12/13 12:10:39;;;;;;;42.15;24.52;;;;;;;1.69;100.00;99949.97;1701614;83;21043;-66
2021/12/13 12:13:37;;;;;;;43.55;25.23;;;;;;;1.72;100.00;99949.55;1723188;83;21070;-66
2021/12/13 12:16:04;;;;;;;40.50;22.82;;;;;;;1.81;100.00;99946.94;1723689;83;21011;-66
2021/12/13 12:18:33;;;;;;;35.15;21.85;;;;;;;1.86;100.00;99953.85;1752543;82;21050;-65
2021/12/13 12:21:40;;;;;;;37.80;23.87;;;;;;;1.83;100.00;99951.59;1753428;82;21002;-65
2021/12/13 12:24:12;;;;;;;39.80;24.32;;;;;;;1.79;100.00;99954.38;1753430;82;21082;-64
2021/12/13 12:26:43;;;;;;;42.25;24.18;;;;;;;1.71;100.00;99948.40;1750945;82;21608;-65
2021/12/13 12:29:15;;;;;;;40.58;24.87;;;;;;;1.73;100.00;99940.98;1750500;82;21023;-66